createdAt,value
2022-11-10T00:00:43.764Z,2.75
2022-11-10T00:03:12.878Z,2.38
2022-11-10T00:05:42.845Z,3.08
2022-11-10T00:08:13.597Z,2.30
2022-11-10T00:10:56.768Z,2.05
2022-11-10T00:13:26.458Z,1.67
2022-11-10T00:16:17.990Z,1.42
2022-11-10T00:18:46.426Z,2.83
2022-11-10T00:21:17.731Z,2.03
2022-11-10T00:23:47.509Z,3.03
2022-11-10T00:26:19.738Z,1.95
2022-11-10T00:28:48.363Z,2.92
2022-11-10T00:31:16.981Z,3.13
2022-11-10T00:33:45.974Z,1.63
2022-11-10T00:36:15.907Z,3.38
2022-11-10T00:38:44.018Z,4.20
2022-11-10T00:41:13.471Z,1.70
2022-11-10T00:43:41.565Z,2.33
2022-11-10T00:46:09.677Z,1.65
2022-11-10T00:48:38.320Z,2.08
2022-11-10T00:51:06.741Z,2.65
2022-11-10T00:53:36.735Z,2.83
2022-11-10T00:56:04.853Z,3.45
2022-11-10T00:58:33.522Z,4.60
2022-11-10T01:01:06.180Z,3.35
2022-11-10T01:03:34.983Z,1.73
2022-11-10T01:06:07.307Z,1.70
2022-11-10T01:08:37.747Z,2.38
2022-11-10T01:11:07.196Z,3.20
2022-11-10T01:13:36.197Z,3.47
2022-11-10T01:16:08.741Z,2.10
2022-11-10T01:18:38.454Z,3.20
2022-11-10T01:21:07.189Z,5.15
2022-11-10T01:23:37.745Z,5.00
2022-11-10T01:26:08.332Z,2.40
2022-11-10T01:28:39.050Z,4.10
2022-11-10T01:31:10.292Z,2.85
2022-11-10T01:33:39.352Z,2.22
2022-11-10T01:36:09.302Z,2.78
2022-11-10T01:38:40.591Z,3.88
2022-11-10T01:41:11.389Z,3.72
2022-11-10T01:43:40.075Z,3.80
2022-11-10T01:46:10.546Z,2.60
2022-11-10T01:48:43.305Z,2.38
2022-11-10T01:51:16.755Z,2.28
2022-11-10T01:53:50.230Z,2.25
2022-11-10T01:56:19.952Z,3.08
2022-11-10T01:58:54.903Z,2.30
2022-11-10T02:01:24.035Z,4.28
2022-11-10T02:03:54.787Z,5.47
2022-11-10T02:06:28.773Z,2.67
2022-11-10T02:08:59.432Z,2.75
2022-11-10T02:11:29.654Z,2.33
2022-11-10T02:13:58.823Z,2.08
2022-11-10T02:16:27.137Z,3.75
2022-11-10T02:18:55.735Z,2.35
2022-11-10T02:21:25.482Z,1.90
2022-11-10T02:23:55.203Z,6.03
2022-11-10T02:26:26.869Z,3.22
2022-11-10T02:28:55.643Z,2.67
2022-11-10T02:31:23.753Z,1.88
2022-11-10T02:33:52.332Z,2.40
2022-11-10T02:36:20.979Z,3.40
2022-11-10T02:38:50.452Z,3.35
2022-11-10T02:41:19.078Z,2.55
2022-11-10T02:43:47.736Z,2.10
2022-11-10T02:46:16.410Z,2.97
2022-11-10T02:48:44.509Z,3.28
2022-11-10T02:51:12.629Z,4.05
2022-11-10T02:53:40.730Z,5.10
2022-11-10T02:56:11.171Z,4.25
2022-11-10T02:58:39.742Z,3.00
2022-11-10T03:01:08.567Z,3.65
2022-11-10T03:03:37.231Z,3.67
2022-11-10T03:06:05.495Z,4.05
2022-11-10T03:08:34.101Z,4.13
2022-11-10T03:11:02.692Z,2.42
2022-11-10T03:13:51.587Z,2.65
2022-11-10T03:16:20.975Z,6.57
2022-11-10T03:18:49.129Z,2.65
2022-11-10T03:21:17.282Z,3.30
2022-11-10T03:23:45.382Z,3.72
2022-11-10T03:26:14.874Z,3.90
2022-11-10T03:28:44.377Z,8.43
2022-11-10T03:31:12.961Z,4.18
2022-11-10T03:33:41.086Z,2.17
2022-11-10T03:36:10.080Z,4.13
2022-11-10T03:38:38.146Z,3.72
2022-11-10T03:41:21.821Z,3.28
2022-11-10T03:43:52.597Z,3.00
2022-11-10T03:46:20.743Z,3.13
2022-11-10T03:48:53.451Z,5.28
2022-11-10T03:51:23.101Z,2.90
2022-11-10T03:53:51.237Z,5.20
2022-11-10T03:56:19.843Z,2.30
2022-11-10T03:58:48.535Z,2.13
2022-11-10T04:01:18.807Z,3.55
2022-11-10T04:03:51.303Z,5.53
2022-11-10T04:06:38.482Z,6.07
2022-11-10T04:09:07.596Z,2.25
2022-11-10T04:11:53.613Z,2.83
2022-11-10T04:14:39.420Z,3.35
2022-11-10T04:17:09.631Z,2.67
2022-11-10T04:19:38.208Z,5.43
2022-11-10T04:22:06.311Z,3.17
2022-11-10T04:24:34.897Z,6.25
2022-11-10T04:27:03.462Z,5.18
2022-11-10T04:29:31.652Z,3.13
2022-11-10T04:32:00.269Z,5.70
2022-11-10T04:34:30.221Z,5.60
2022-11-10T04:36:58.294Z,2.17
2022-11-10T04:39:26.853Z,2.28
2022-11-10T04:41:59.756Z,5.78
2022-11-10T04:44:30.946Z,3.20
2022-11-10T04:46:59.019Z,4.05
2022-11-10T04:49:27.767Z,5.72
2022-11-10T04:51:57.511Z,2.70
2022-11-10T04:54:26.281Z,2.38
2022-11-10T04:56:55.595Z,2.40
2022-11-10T04:59:24.317Z,3.10
2022-11-10T05:01:52.945Z,2.17
2022-11-10T05:04:20.956Z,4.28
2022-11-10T05:06:49.539Z,5.35
2022-11-10T05:09:19.634Z,4.20
2022-11-10T05:11:47.705Z,3.13
2022-11-10T05:14:16.324Z,3.03
2022-11-10T05:16:44.422Z,6.07
2022-11-10T05:19:13.132Z,2.30
2022-11-10T05:21:41.230Z,3.33
2022-11-10T05:24:09.526Z,5.38
2022-11-10T05:26:38.990Z,5.13
2022-11-10T05:29:07.599Z,3.67
2022-11-10T05:31:35.711Z,4.43
2022-11-10T05:34:04.514Z,2.45
2022-11-10T05:36:32.597Z,3.85
2022-11-10T05:39:00.799Z,3.35
2022-11-10T05:41:28.906Z,5.15
2022-11-10T05:43:58.470Z,4.00
2022-11-10T05:46:26.899Z,3.15
2022-11-10T05:48:55.064Z,2.45
2022-11-10T05:51:23.672Z,5.25
2022-11-10T05:53:51.737Z,3.42
2022-11-10T05:56:20.294Z,5.85
2022-11-10T05:58:48.943Z,5.15
2022-11-10T06:01:18.558Z,3.90
2022-11-10T06:03:47.161Z,4.22
2022-11-10T06:06:15.833Z,3.65
2022-11-10T06:08:43.958Z,3.70
2022-11-10T06:11:13.237Z,4.00
2022-11-10T06:13:41.799Z,5.13
2022-11-10T06:16:09.984Z,4.97
2022-11-10T06:18:40.112Z,4.75
2022-11-10T06:21:08.218Z,3.90
2022-11-10T06:23:36.322Z,5.07
2022-11-10T06:26:04.892Z,5.07
2022-11-10T06:28:33.238Z,4.40
2022-11-10T06:31:01.861Z,5.47
2022-11-10T06:33:29.942Z,4.95
2022-11-10T06:35:59.969Z,5.22
2022-11-10T06:38:28.562Z,6.72
2022-11-10T06:40:56.622Z,4.72
2022-11-10T06:43:24.989Z,4.75
2022-11-10T06:45:53.420Z,5.50
2022-11-10T06:48:22.076Z,6.90
2022-11-10T06:50:50.378Z,6.43
2022-11-10T06:53:25.822Z,6.97
2022-11-10T06:55:55.068Z,5.05
2022-11-10T06:58:23.200Z,5.72
2022-11-10T07:00:51.827Z,5.40
2022-11-10T07:03:20.405Z,6.05
2022-11-10T07:05:49.181Z,6.38
2022-11-10T07:08:17.733Z,4.22
2022-11-10T07:10:53.456Z,4.63
2022-11-10T07:13:22.608Z,7.50
2022-11-10T07:15:51.584Z,8.25
2022-11-10T07:18:19.733Z,5.60
2022-11-10T07:20:47.868Z,7.47
2022-11-10T07:23:16.509Z,7.72
2022-11-10T07:25:45.965Z,5.50
2022-11-10T07:28:14.140Z,7.57
2022-11-10T07:30:42.343Z,5.75
2022-11-10T07:33:13.659Z,6.13
2022-11-10T07:35:42.699Z,5.65
2022-11-10T07:38:12.735Z,5.82
2022-11-10T07:40:40.994Z,6.53
2022-11-10T07:43:11.010Z,6.32
2022-11-10T07:45:39.588Z,5.55
2022-11-10T07:48:09.451Z,5.28
2022-11-10T07:50:38.258Z,5.45
2022-11-10T07:53:08.540Z,5.97
2022-11-10T07:55:38.444Z,6.00
2022-11-10T07:58:07.391Z,7.45
2022-11-10T08:00:38.989Z,5.82
2022-11-10T08:03:08.621Z,5.85
2022-11-10T08:05:37.391Z,6.00
2022-11-10T08:08:06.428Z,10.95
2022-11-10T08:10:36.479Z,5.53
2022-11-10T08:13:06.826Z,7.88
2022-11-10T08:15:36.911Z,5.90
2022-11-10T08:18:07.426Z,7.63
2022-11-10T08:20:36.144Z,5.30
2022-11-10T08:23:05.825Z,5.63
2022-11-10T08:25:35.956Z,6.30
2022-11-10T08:28:06.138Z,5.03
2022-11-10T08:30:38.342Z,6.45
2022-11-10T08:33:08.845Z,4.68
2022-11-10T08:35:39.409Z,6.00
2022-11-10T08:38:09.943Z,5.60
2022-11-10T08:40:39.081Z,5.10
2022-11-10T08:43:08.526Z,5.50
2022-11-10T08:45:39.339Z,6.45
2022-11-10T08:48:09.407Z,5.10
2022-11-10T08:50:38.569Z,6.05
2022-11-10T08:53:08.788Z,6.30
2022-11-10T08:55:37.663Z,7.57
2022-11-10T08:58:06.564Z,5.95
2022-11-10T09:00:35.802Z,6.28
2022-11-10T09:03:10.085Z,8.35
2022-11-10T09:05:39.014Z,6.30
2022-11-10T09:08:07.800Z,5.88
2022-11-10T09:10:37.042Z,7.85
2022-11-10T09:13:06.711Z,5.03
2022-11-10T09:15:36.225Z,5.15
2022-11-10T09:18:07.607Z,6.32
2022-11-10T09:20:37.936Z,5.47
2022-11-10T09:23:07.472Z,7.43
2022-11-10T09:25:36.144Z,7.55
2022-11-10T09:28:04.303Z,4.68
2022-11-10T09:30:33.158Z,6.07
2022-11-10T09:33:01.917Z,4.80
2022-11-10T09:35:31.912Z,5.72
2022-11-10T09:38:00.010Z,4.70
2022-11-10T09:40:34.836Z,6.70
2022-11-10T09:43:04.909Z,7.40
2022-11-10T09:45:39.309Z,5.38
2022-11-10T09:48:15.017Z,6.38
2022-11-10T09:50:50.088Z,6.50
2022-11-10T09:53:22.492Z,6.00
2022-11-10T09:55:54.852Z,6.70
2022-11-10T09:58:29.029Z,4.47
2022-11-10T10:01:05.331Z,6.80
2022-11-10T10:03:33.520Z,6.78
2022-11-10T10:06:10.889Z,3.83
2022-11-10T10:08:51.753Z,6.40
2022-11-10T10:11:38.323Z,7.07
2022-11-10T10:14:24.760Z,6.20
2022-11-10T10:17:00.685Z,4.18
2022-11-10T10:19:36.749Z,4.63
2022-11-10T10:22:33.143Z,5.28
2022-11-10T10:25:05.082Z,5.85
2022-11-10T10:27:35.980Z,4.53
2022-11-10T10:58:56.815Z,4.35
2022-11-10T11:01:31.473Z,4.90
2022-11-10T11:04:01.056Z,4.38
2022-11-10T11:06:30.817Z,6.03
2022-11-10T11:09:01.959Z,4.78
2022-11-10T11:11:32.463Z,4.25
2022-11-10T11:14:20.377Z,4.30
2022-11-10T11:16:51.461Z,3.65
2022-11-10T11:19:22.757Z,4.03
2022-11-10T11:22:29.348Z,4.80
2022-11-10T11:25:08.547Z,6.68
2022-11-10T11:27:44.790Z,2.95
2022-11-10T11:30:22.166Z,4.90
2022-11-10T11:33:15.200Z,3.22
2022-11-10T11:35:49.148Z,3.47
2022-11-10T11:38:24.442Z,5.63
2022-11-10T11:41:01.850Z,5.63
2022-11-10T11:44:08.030Z,2.78
2022-11-10T11:46:48.910Z,3.88
2022-11-10T11:49:48.277Z,3.88
2022-11-10T11:52:27.190Z,5.10
2022-11-10T11:55:21.430Z,2.97
2022-11-10T11:58:07.884Z,3.65
2022-11-10T12:00:43.486Z,4.28
2022-11-10T12:03:38.157Z,4.80
2022-11-10T12:06:26.057Z,5.20
2022-11-10T12:09:01.813Z,3.45
2022-11-10T12:11:43.531Z,3.97
2022-11-10T12:14:22.862Z,3.65
2022-11-10T12:17:01.100Z,2.40
2022-11-10T12:19:38.570Z,3.38
2022-11-10T12:22:13.872Z,4.15
2022-11-10T12:24:56.058Z,2.28
2022-11-10T12:27:30.213Z,4.40
2022-11-10T12:30:03.203Z,3.45
2022-11-10T12:32:39.178Z,3.22
2022-11-10T12:35:15.038Z,3.67
2022-11-10T12:37:47.240Z,3.90
2022-11-10T12:40:18.436Z,3.08
2022-11-10T12:42:52.773Z,3.13
2022-11-10T12:45:24.630Z,2.90
2022-11-10T12:47:54.700Z,3.13
2022-11-10T12:50:37.007Z,3.47
2022-11-10T12:53:11.921Z,3.97
2022-11-10T12:55:44.602Z,4.70
2022-11-10T12:58:14.972Z,3.33
2022-11-10T13:00:45.597Z,5.00
2022-11-10T13:03:27.613Z,2.67
2022-11-10T13:06:02.625Z,3.20
2022-11-10T13:08:34.432Z,3.90
2022-11-10T13:11:06.636Z,2.97
2022-11-10T13:13:47.491Z,4.60
2022-11-10T13:16:54.384Z,3.03
2022-11-10T13:19:52.046Z,2.65
2022-11-10T13:22:33.243Z,1.45
2022-11-10T13:25:38.757Z,4.18
2022-11-10T13:28:10.221Z,2.50
2022-11-10T13:30:40.820Z,4.95
2022-11-10T13:33:47.320Z,3.88
2022-11-10T13:36:39.386Z,4.68
2022-11-10T13:39:28.000Z,4.78
2022-11-10T13:42:04.409Z,2.10
2022-11-10T13:44:35.209Z,2.08
2022-11-10T13:47:35.414Z,4.03
2022-11-10T13:50:19.972Z,2.70
2022-11-10T13:53:02.297Z,2.70
2022-11-10T13:55:49.617Z,2.75
2022-11-10T13:58:24.639Z,3.65
2022-11-10T14:01:26.648Z,2.97
2022-11-10T14:04:00.349Z,3.95
2022-11-10T14:06:40.695Z,3.47
2022-11-10T14:09:20.231Z,2.50
2022-11-10T14:11:55.505Z,2.08
2022-11-10T14:14:28.201Z,3.17
2022-11-10T14:16:57.567Z,2.65
2022-11-10T14:19:33.371Z,3.38
2022-11-10T14:22:09.252Z,3.05
2022-11-10T14:24:44.438Z,4.93
2022-11-10T14:27:22.147Z,2.78
2022-11-10T14:29:50.252Z,3.42
2022-11-10T14:32:22.615Z,2.22
2022-11-10T14:34:53.989Z,3.83
2022-11-10T14:37:24.467Z,3.33
2022-11-10T14:39:55.752Z,4.10
2022-11-10T14:42:28.060Z,2.50
2022-11-10T14:45:16.647Z,3.35
2022-11-10T14:47:45.371Z,6.18
2022-11-10T14:50:19.487Z,3.15
2022-11-10T14:52:52.496Z,3.53
2022-11-10T14:55:23.870Z,3.10
2022-11-10T14:57:59.140Z,3.00
2022-11-10T15:00:29.282Z,3.78
2022-11-10T15:02:59.188Z,6.63
2022-11-10T15:05:27.463Z,1.75
2022-11-10T15:07:58.187Z,3.25
2022-11-10T15:10:28.409Z,3.38
2022-11-10T15:13:03.247Z,2.10
2022-11-10T15:15:32.038Z,2.08
2022-11-10T15:18:00.248Z,3.47
2022-11-10T15:20:34.684Z,3.55
2022-11-10T15:23:05.549Z,1.42
2022-11-10T15:25:36.745Z,5.82
2022-11-10T15:28:23.483Z,6.13
2022-11-10T15:30:53.769Z,2.63
2022-11-10T15:33:27.915Z,3.67
2022-11-10T15:35:57.505Z,1.90
2022-11-10T15:38:29.611Z,3.60
2022-11-10T15:41:16.983Z,4.13
2022-11-10T15:43:47.033Z,3.13
2022-11-10T15:46:18.533Z,4.07
2022-11-10T15:48:49.109Z,4.10
2022-11-10T15:51:25.709Z,2.38
2022-11-10T15:53:55.481Z,7.82
2022-11-10T15:56:25.445Z,3.47
2022-11-10T15:59:01.649Z,3.17
2022-11-10T16:01:31.544Z,5.97
2022-11-10T16:04:00.213Z,3.92
2022-11-10T16:06:30.408Z,5.75
2022-11-10T16:08:58.689Z,3.03
2022-11-10T16:11:27.544Z,3.20
2022-11-10T16:13:57.376Z,4.15
2022-11-10T16:16:25.762Z,2.97
2022-11-10T16:18:54.459Z,3.83
2022-11-10T16:21:24.866Z,3.83
2022-11-10T16:23:53.937Z,2.88
2022-11-10T16:26:25.253Z,3.75
2022-11-10T16:28:53.889Z,5.80
2022-11-10T16:31:24.105Z,6.90
2022-11-10T16:33:52.229Z,24.00
2022-11-10T16:36:25.664Z,17.88
2022-11-10T16:38:54.328Z,14.20
2022-11-10T16:41:23.566Z,9.27
2022-11-10T16:43:51.927Z,7.18
2022-11-10T16:46:24.481Z,5.88
2022-11-10T16:48:55.578Z,7.30
2022-11-10T16:51:29.981Z,6.35
2022-11-10T16:54:00.036Z,4.00
2022-11-10T16:56:28.163Z,6.53
2022-11-10T16:58:56.746Z,7.45
2022-11-10T17:01:29.128Z,4.90
2022-11-10T17:04:00.139Z,6.85
2022-11-10T17:06:29.740Z,5.32
2022-11-10T17:09:02.692Z,7.95
2022-11-10T17:11:31.508Z,4.13
2022-11-10T17:13:59.594Z,6.00
2022-11-10T17:16:32.477Z,6.13
2022-11-10T17:19:02.746Z,4.05
2022-11-10T17:21:34.044Z,4.60
2022-11-10T17:24:03.005Z,12.88
2022-11-10T17:26:31.839Z,6.63
2022-11-10T17:28:59.915Z,7.95
2022-11-10T17:31:29.867Z,4.18
2022-11-10T17:33:58.004Z,5.15
2022-11-10T17:36:26.199Z,6.55
2022-11-10T17:38:54.348Z,3.85
2022-11-10T17:41:22.931Z,5.07
2022-11-10T17:43:51.573Z,6.38
2022-11-10T17:46:20.144Z,3.50
2022-11-10T17:48:50.304Z,5.85
2022-11-10T17:51:21.315Z,6.57
2022-11-10T17:53:50.613Z,6.63
2022-11-10T17:56:19.545Z,5.03
2022-11-10T17:58:47.605Z,5.35
2022-11-10T18:01:19.072Z,5.45
2022-11-10T18:03:49.687Z,4.70
2022-11-10T18:06:19.425Z,6.10
2022-11-10T18:08:48.364Z,7.97
2022-11-10T18:11:18.556Z,7.60
2022-11-10T18:13:47.594Z,8.63
2022-11-10T18:16:16.036Z,9.73
2022-11-10T18:18:44.132Z,5.55
2022-11-10T18:21:14.465Z,5.68
2022-11-10T18:23:44.997Z,4.88
2022-11-10T18:26:13.601Z,5.80
2022-11-10T18:28:43.258Z,6.10
2022-11-10T18:31:14.259Z,7.30
2022-11-10T18:33:42.819Z,4.85
2022-11-10T18:36:11.770Z,6.65
2022-11-10T18:38:41.200Z,12.55
2022-11-10T18:41:26.936Z,7.63
2022-11-10T18:43:55.005Z,8.45
2022-11-10T18:46:23.645Z,6.07
2022-11-10T18:48:51.766Z,5.40
2022-11-10T18:51:19.907Z,6.03
2022-11-10T18:53:49.411Z,5.28
2022-11-10T18:56:18.012Z,6.28
2022-11-10T18:58:46.366Z,7.05
2022-11-10T19:01:14.606Z,6.13
2022-11-10T19:03:43.219Z,6.47
2022-11-10T19:06:12.834Z,8.57
2022-11-10T19:08:41.254Z,7.20
2022-11-10T19:11:12.633Z,7.68
2022-11-10T19:13:41.510Z,8.77
2022-11-10T19:16:11.900Z,9.25
2022-11-10T19:18:40.850Z,7.85
2022-11-10T19:21:10.452Z,8.85
2022-11-10T19:23:38.883Z,7.72
2022-11-10T19:26:10.452Z,8.18
2022-11-10T19:28:40.631Z,8.05
2022-11-10T19:31:10.540Z,8.05
2022-11-10T19:33:40.605Z,5.15
2022-11-10T19:36:11.318Z,6.95
2022-11-10T19:38:39.480Z,5.85
2022-11-10T19:41:10.495Z,7.93
2022-11-10T19:43:43.604Z,5.25
2022-11-10T19:46:17.217Z,5.60
2022-11-10T19:48:45.979Z,8.00
2022-11-10T19:51:15.635Z,5.32
2022-11-10T19:53:45.609Z,7.13
2022-11-10T19:56:16.732Z,7.80
2022-11-10T19:58:46.209Z,7.22
2022-11-10T20:01:16.184Z,7.05
2022-11-10T20:03:44.500Z,5.80
2022-11-10T20:06:15.041Z,5.50
2022-11-10T20:08:44.807Z,5.05
2022-11-10T20:11:14.784Z,5.28
2022-11-10T20:13:43.272Z,4.70
2022-11-10T20:16:14.229Z,6.03
2022-11-10T20:18:43.323Z,5.72
2022-11-10T20:21:13.528Z,4.07
2022-11-10T20:23:42.926Z,6.13
2022-11-10T20:26:12.649Z,4.35
2022-11-10T20:28:41.606Z,3.25
2022-11-10T20:31:16.167Z,4.25
2022-11-10T20:33:45.918Z,5.93
2022-11-10T20:36:20.244Z,4.07
2022-11-10T20:38:49.422Z,5.95
2022-11-10T20:41:20.330Z,6.18
2022-11-10T20:43:49.593Z,7.93
2022-11-10T20:46:52.869Z,6.70
2022-11-10T20:49:09.266Z,9.43
2022-11-10T20:51:37.422Z,11.88
2022-11-10T20:54:05.624Z,13.05
2022-11-10T20:56:34.189Z,10.45
2022-11-10T20:59:02.795Z,8.10
2022-11-10T21:01:33.510Z,6.40
2022-11-10T21:04:03.006Z,5.88
2022-11-10T21:06:31.624Z,8.68
2022-11-10T21:08:59.881Z,5.75
2022-11-10T21:11:45.686Z,6.78
2022-11-10T21:14:13.762Z,6.97
2022-11-10T21:16:43.803Z,7.78
2022-11-10T21:19:11.919Z,5.78
2022-11-10T21:21:40.493Z,6.85
2022-11-10T21:24:09.979Z,6.03
2022-11-10T21:26:38.128Z,5.63
2022-11-10T21:29:07.716Z,7.78
2022-11-10T21:31:36.497Z,6.47
2022-11-10T21:34:06.443Z,6.57
2022-11-10T21:36:34.527Z,5.45
2022-11-10T21:39:02.705Z,7.93
2022-11-10T21:41:31.327Z,10.15
2022-11-10T21:43:59.815Z,6.50
2022-11-10T21:46:28.693Z,7.95
2022-11-10T21:48:56.908Z,7.63
2022-11-10T21:51:26.599Z,8.25
2022-11-10T21:53:54.681Z,13.63
2022-11-10T21:56:23.281Z,22.60
2022-11-10T21:58:52.070Z,34.53
2022-11-10T22:01:20.697Z,33.20
2022-11-10T22:03:48.863Z,20.25
2022-11-10T22:06:19.453Z,12.85
2022-11-10T22:08:50.094Z,9.88
2022-11-10T22:11:37.509Z,7.72
2022-11-10T22:14:26.657Z,9.15
2022-11-10T22:17:12.348Z,10.13
2022-11-10T22:19:41.449Z,7.38
2022-11-10T22:22:09.532Z,7.45
2022-11-10T22:24:41.801Z,7.97
2022-11-10T22:27:10.571Z,7.45
2022-11-10T22:29:39.214Z,6.43
2022-11-10T22:32:07.423Z,7.20
2022-11-10T22:34:36.011Z,7.13
2022-11-10T22:37:04.112Z,6.35
2022-11-10T22:39:46.522Z,7.35
2022-11-10T22:42:33.738Z,5.95
2022-11-10T22:45:02.311Z,5.72
2022-11-10T22:47:50.417Z,6.82
2022-11-10T22:50:19.054Z,7.07
2022-11-10T22:52:47.219Z,8.27
2022-11-10T22:55:15.428Z,5.78
2022-11-10T22:57:44.939Z,6.20
2022-11-10T23:00:14.684Z,6.43
2022-11-10T23:02:43.258Z,5.38
2022-11-10T23:05:11.405Z,6.68
2022-11-10T23:07:39.537Z,5.53
2022-11-10T23:10:09.233Z,5.30
2022-11-10T23:12:37.293Z,5.25
2022-11-10T23:15:07.504Z,8.60
2022-11-10T23:17:35.581Z,6.18
2022-11-10T23:20:04.438Z,4.90
2022-11-10T23:22:33.116Z,24.80
2022-11-10T23:25:01.210Z,14.57
2022-11-10T23:27:29.369Z,9.27
2022-11-10T23:29:57.997Z,7.82
2022-11-10T23:32:27.581Z,10.23
2022-11-10T23:34:55.616Z,6.67
2022-11-10T23:37:24.194Z,7.70
2022-11-10T23:39:52.489Z,7.00
2022-11-10T23:42:21.075Z,8.63
2022-11-10T23:44:49.178Z,6.60
2022-11-10T23:47:17.495Z,7.70
2022-11-10T23:49:46.996Z,7.97
2022-11-10T23:52:15.108Z,11.23
2022-11-10T23:54:43.263Z,11.87
2022-11-10T23:57:11.335Z,9.50
2022-11-10T23:59:39.414Z,8.93
